createdAt,value
2022-10-22T00:00:24.253Z,3
2022-10-22T00:01:24.248Z,3
2022-10-22T00:02:24.310Z,3
2022-10-22T00:03:24.241Z,2
2022-10-22T00:04:24.337Z,3
2022-10-22T00:05:24.255Z,3
2022-10-22T00:06:24.252Z,3
2022-10-22T00:07:24.278Z,3
2022-10-22T00:08:24.244Z,3
2022-10-22T00:09:24.251Z,3
2022-10-22T00:10:24.256Z,3
2022-10-22T00:12:24.245Z,3
2022-10-22T00:13:24.246Z,3
2022-10-22T00:14:24.243Z,3
2022-10-22T00:15:24.270Z,3
2022-10-22T00:16:24.251Z,3
2022-10-22T00:17:24.254Z,3
2022-10-22T00:18:24.252Z,3
2022-10-22T00:19:24.252Z,3
2022-10-22T00:20:24.254Z,3
2022-10-22T00:21:24.256Z,3
2022-10-22T00:22:24.256Z,2
2022-10-22T00:23:24.250Z,2
2022-10-22T00:24:24.245Z,3
2022-10-22T00:25:24.252Z,3
2022-10-22T00:26:24.250Z,3
2022-10-22T00:27:24.254Z,3
2022-10-22T00:28:24.277Z,2
2022-10-22T00:29:24.259Z,3
2022-10-22T00:30:24.254Z,3
2022-10-22T00:31:24.258Z,3
2022-10-22T00:32:24.261Z,3
2022-10-22T00:33:24.264Z,3
2022-10-22T00:34:24.262Z,3
2022-10-22T00:35:24.267Z,3
2022-10-22T00:36:24.255Z,3
2022-10-22T00:37:24.254Z,3
2022-10-22T00:38:24.264Z,3
2022-10-22T00:39:24.256Z,3
2022-10-22T00:40:24.255Z,3
2022-10-22T00:41:24.261Z,3
2022-10-22T00:42:24.258Z,3
2022-10-22T00:43:24.252Z,2
2022-10-22T00:44:24.258Z,3
2022-10-22T00:45:24.258Z,2
2022-10-22T00:46:24.259Z,3
2022-10-22T00:47:24.253Z,3
2022-10-22T00:48:24.251Z,3
2022-10-22T00:49:24.263Z,3
2022-10-22T00:50:24.269Z,3
2022-10-22T00:51:24.266Z,3
2022-10-22T00:52:24.640Z,3
2022-10-22T00:53:24.274Z,4
2022-10-22T00:54:24.262Z,2
2022-10-22T00:55:24.273Z,2
2022-10-22T00:56:24.264Z,2
2022-10-22T00:57:24.270Z,2
2022-10-22T00:58:24.268Z,2
2022-10-22T00:59:24.296Z,3
2022-10-22T01:00:24.264Z,3
2022-10-22T01:01:24.326Z,3
2022-10-22T01:02:24.266Z,3
2022-10-22T01:03:24.270Z,3
2022-10-22T01:04:24.262Z,3
2022-10-22T01:05:24.265Z,2
2022-10-22T01:06:24.270Z,3
2022-10-22T01:07:24.271Z,2
2022-10-22T01:08:24.269Z,2
2022-10-22T01:09:24.265Z,3
2022-10-22T01:10:24.267Z,3
2022-10-22T01:11:24.269Z,2
2022-10-22T01:12:24.266Z,3
2022-10-22T01:13:24.262Z,2
2022-10-22T01:14:24.264Z,2
2022-10-22T01:15:24.273Z,2
2022-10-22T01:16:24.273Z,3
2022-10-22T01:17:24.337Z,3
2022-10-22T01:18:24.273Z,2
2022-10-22T01:19:24.265Z,2
2022-10-22T01:20:24.274Z,3
2022-10-22T01:22:24.276Z,3
2022-10-22T01:23:24.272Z,3
2022-10-22T01:24:24.267Z,2
2022-10-22T01:25:24.271Z,2
2022-10-22T01:27:24.272Z,3
2022-10-22T01:28:24.274Z,2
2022-10-22T01:29:24.278Z,2
2022-10-22T01:30:24.290Z,2
2022-10-22T01:31:24.268Z,3
2022-10-22T01:32:24.276Z,2
2022-10-22T01:33:24.267Z,3
2022-10-22T01:34:24.271Z,3
2022-10-22T01:35:24.377Z,3
2022-10-22T01:36:24.269Z,3
2022-10-22T01:37:24.268Z,3
2022-10-22T01:38:24.277Z,3
2022-10-22T01:39:24.271Z,3
2022-10-22T01:40:24.271Z,3
2022-10-22T01:41:24.285Z,3
2022-10-22T01:42:24.278Z,3
2022-10-22T01:43:24.267Z,3
2022-10-22T01:44:24.324Z,3
2022-10-22T01:45:24.285Z,3
2022-10-22T01:46:24.285Z,4
2022-10-22T01:47:24.282Z,4
2022-10-22T01:48:24.276Z,3
2022-10-22T01:50:24.282Z,4
2022-10-22T01:51:24.289Z,5
2022-10-22T01:52:24.283Z,4
2022-10-22T01:53:24.281Z,4
2022-10-22T01:54:24.277Z,4
2022-10-22T01:55:24.282Z,4
2022-10-22T01:56:24.285Z,5
2022-10-22T01:57:24.287Z,5
2022-10-22T01:58:24.276Z,5
2022-10-22T01:59:24.283Z,4
2022-10-22T02:00:24.435Z,5
2022-10-22T02:01:24.303Z,4
2022-10-22T02:02:24.285Z,4
2022-10-22T02:03:24.287Z,5
2022-10-22T02:04:24.280Z,4
2022-10-22T02:05:24.283Z,4
2022-10-22T02:06:24.279Z,5
2022-10-22T02:07:24.288Z,4
2022-10-22T02:08:24.294Z,4
2022-10-22T02:09:24.282Z,4
2022-10-22T02:10:24.296Z,4
2022-10-22T02:11:24.283Z,5
2022-10-22T02:12:24.280Z,4
2022-10-22T02:13:24.279Z,5
2022-10-22T02:14:24.289Z,4
2022-10-22T02:15:24.298Z,4
2022-10-22T02:16:24.287Z,4
2022-10-22T02:17:24.291Z,4
2022-10-22T02:19:24.289Z,4
2022-10-22T02:20:24.297Z,4
2022-10-22T02:21:24.286Z,4
2022-10-22T02:22:24.288Z,4
2022-10-22T02:23:24.286Z,3
2022-10-22T02:24:24.284Z,4
2022-10-22T02:25:24.292Z,4
2022-10-22T02:26:24.305Z,4
2022-10-22T02:27:26.863Z,4
2022-10-22T02:28:24.291Z,4
2022-10-22T02:29:24.292Z,3
2022-10-22T02:30:24.290Z,4
2022-10-22T02:31:24.298Z,4
2022-10-22T02:32:24.322Z,4
2022-10-22T02:33:24.291Z,4
2022-10-22T02:34:24.288Z,4
2022-10-22T02:35:24.297Z,4
2022-10-22T02:36:24.295Z,4
2022-10-22T02:37:24.302Z,4
2022-10-22T02:38:24.314Z,4
2022-10-22T02:39:24.294Z,3
2022-10-22T02:40:24.294Z,3
2022-10-22T02:41:24.300Z,3
2022-10-22T02:42:24.288Z,3
2022-10-22T02:43:24.301Z,4
2022-10-22T02:44:24.292Z,4
2022-10-22T02:45:24.296Z,3
2022-10-22T02:46:24.317Z,3
2022-10-22T02:47:24.294Z,3
2022-10-22T02:48:24.299Z,3
2022-10-22T02:49:24.293Z,3
2022-10-22T02:50:24.297Z,3
2022-10-22T02:51:24.304Z,3
2022-10-22T02:52:24.299Z,3
2022-10-22T02:53:24.297Z,3
2022-10-22T02:54:24.302Z,3
2022-10-22T02:55:24.306Z,3
2022-10-22T02:56:24.302Z,3
2022-10-22T02:57:24.302Z,3
2022-10-22T02:58:24.297Z,3
2022-10-22T02:59:24.304Z,3
2022-10-22T03:00:24.293Z,3
2022-10-22T03:01:24.396Z,3
2022-10-22T03:02:24.298Z,3
2022-10-22T03:03:24.327Z,3
2022-10-22T03:04:24.302Z,3
2022-10-22T03:05:24.304Z,3
2022-10-22T03:07:24.301Z,3
2022-10-22T03:08:24.312Z,3
2022-10-22T03:09:24.975Z,3
2022-10-22T03:10:24.303Z,3
2022-10-22T03:11:24.309Z,3
2022-10-22T03:12:24.312Z,3
2022-10-22T03:13:24.307Z,3
2022-10-22T03:14:24.315Z,3
2022-10-22T03:15:24.346Z,3
2022-10-22T03:16:24.305Z,3
2022-10-22T03:17:24.307Z,3
2022-10-22T03:18:24.301Z,3
2022-10-22T03:19:24.300Z,3
2022-10-22T03:20:24.307Z,3
2022-10-22T03:21:24.310Z,3
2022-10-22T03:22:24.312Z,3
2022-10-22T03:23:24.305Z,3
2022-10-22T03:24:24.314Z,3
2022-10-22T03:25:24.311Z,3
2022-10-22T03:26:24.306Z,3
2022-10-22T03:27:24.325Z,3
2022-10-22T03:28:24.304Z,3
2022-10-22T03:29:24.302Z,3
2022-10-22T03:30:24.312Z,3
2022-10-22T03:31:24.314Z,3
2022-10-22T03:32:24.309Z,4
2022-10-22T03:33:24.306Z,4
2022-10-22T03:34:24.338Z,4
2022-10-22T03:35:24.308Z,4
2022-10-22T03:36:24.311Z,4
2022-10-22T03:37:24.309Z,4
2022-10-22T03:38:24.310Z,4
2022-10-22T03:39:24.314Z,3
2022-10-22T03:40:24.310Z,3
2022-10-22T03:41:24.314Z,3
2022-10-22T03:42:24.407Z,4
2022-10-22T03:43:24.317Z,4
2022-10-22T03:44:24.316Z,4
2022-10-22T03:45:24.360Z,4
2022-10-22T03:46:24.318Z,4
2022-10-22T03:47:24.307Z,4
2022-10-22T03:48:24.313Z,4
2022-10-22T03:49:24.313Z,3
2022-10-22T03:50:24.331Z,4
2022-10-22T03:51:24.316Z,4
2022-10-22T03:52:24.315Z,4
2022-10-22T03:53:24.318Z,4
2022-10-22T03:54:24.356Z,4
2022-10-22T03:55:24.327Z,4
2022-10-22T03:56:24.309Z,4
2022-10-22T03:57:24.316Z,5
2022-10-22T03:58:24.316Z,4
2022-10-22T03:59:24.315Z,4
2022-10-22T04:00:24.315Z,4
2022-10-22T04:01:24.377Z,4
2022-10-22T04:02:24.312Z,4
2022-10-22T04:03:24.331Z,4
2022-10-22T04:04:24.458Z,4
2022-10-22T04:05:24.347Z,4
2022-10-22T04:06:24.326Z,5
2022-10-22T04:07:24.327Z,4
2022-10-22T04:08:24.320Z,5
2022-10-22T04:09:24.354Z,5
2022-10-22T04:10:24.324Z,4
2022-10-22T04:11:24.323Z,4
2022-10-22T04:12:24.323Z,4
2022-10-22T04:13:24.323Z,4
2022-10-22T04:14:24.332Z,4
2022-10-22T04:15:24.323Z,4
2022-10-22T04:16:26.348Z,4
2022-10-22T04:18:24.325Z,4
2022-10-22T04:19:24.613Z,4
2022-10-22T04:20:24.324Z,5
2022-10-22T04:21:24.329Z,5
2022-10-22T04:22:24.330Z,4
2022-10-22T04:23:24.320Z,4
2022-10-22T04:24:24.325Z,5
2022-10-22T04:25:24.331Z,5
2022-10-22T04:26:24.321Z,5
2022-10-22T04:27:24.359Z,5
2022-10-22T04:28:24.328Z,5
2022-10-22T04:29:24.344Z,5
2022-10-22T04:30:24.323Z,4
2022-10-22T04:31:24.330Z,5
2022-10-22T04:32:24.358Z,5
2022-10-22T04:33:24.332Z,5
2022-10-22T04:34:24.333Z,5
2022-10-22T04:36:24.353Z,5
2022-10-22T04:37:24.322Z,5
2022-10-22T04:38:24.331Z,5
2022-10-22T04:39:24.327Z,5
2022-10-22T04:40:24.329Z,5
2022-10-22T04:41:24.324Z,5
2022-10-22T04:42:24.327Z,5
2022-10-22T04:43:24.325Z,5
2022-10-22T04:44:24.339Z,5
2022-10-22T04:45:24.333Z,5
2022-10-22T04:46:24.337Z,5
2022-10-22T04:47:24.333Z,5
2022-10-22T04:49:24.329Z,5
2022-10-22T04:50:24.335Z,6
2022-10-22T04:51:24.342Z,6
2022-10-22T04:52:24.333Z,6
2022-10-22T04:53:24.336Z,5
2022-10-22T04:54:25.804Z,6
2022-10-22T04:55:24.388Z,6
2022-10-22T04:56:24.335Z,6
2022-10-22T04:57:24.340Z,6
2022-10-22T04:58:24.335Z,5
2022-10-22T04:59:24.331Z,5
2022-10-22T05:00:24.339Z,5
2022-10-22T05:01:24.434Z,5
2022-10-22T05:02:24.328Z,6
2022-10-22T05:03:24.336Z,5
2022-10-22T05:04:24.337Z,5
2022-10-22T05:05:24.337Z,6
2022-10-22T05:06:24.345Z,5
2022-10-22T05:07:24.361Z,5
2022-10-22T05:08:24.335Z,5
2022-10-22T05:09:24.329Z,4
2022-10-22T05:10:24.337Z,5
2022-10-22T05:11:24.338Z,6
2022-10-22T05:12:24.343Z,5
2022-10-22T05:13:24.336Z,5
2022-10-22T05:14:24.335Z,5
2022-10-22T05:15:24.337Z,5
2022-10-22T05:16:24.419Z,4
2022-10-22T05:17:24.334Z,5
2022-10-22T05:18:24.337Z,4
2022-10-22T05:19:24.339Z,4
2022-10-22T05:20:24.345Z,5
2022-10-22T05:21:24.344Z,4
2022-10-22T05:22:24.352Z,5
2022-10-22T05:23:24.345Z,5
2022-10-22T05:24:24.335Z,4
2022-10-22T05:26:24.343Z,4
2022-10-22T05:27:24.349Z,4
2022-10-22T05:28:24.343Z,4
2022-10-22T05:29:24.359Z,4
2022-10-22T05:30:24.350Z,4
2022-10-22T05:31:24.349Z,4
2022-10-22T05:32:24.341Z,4
2022-10-22T05:33:24.346Z,4
2022-10-22T05:34:24.338Z,4
2022-10-22T05:35:24.347Z,5
2022-10-22T05:36:24.349Z,4
2022-10-22T05:37:24.343Z,4
2022-10-22T05:39:24.347Z,4
2022-10-22T05:40:31.122Z,4
2022-10-22T05:41:24.348Z,4
2022-10-22T05:42:24.348Z,4
2022-10-22T05:43:24.349Z,4
2022-10-22T05:44:24.354Z,4
2022-10-22T05:45:24.349Z,4
2022-10-22T05:46:24.372Z,4
2022-10-22T05:47:24.344Z,4
2022-10-22T05:48:24.385Z,4
2022-10-22T05:49:24.358Z,4
2022-10-22T05:50:24.350Z,4
2022-10-22T05:51:24.354Z,4
2022-10-22T05:52:24.359Z,4
2022-10-22T05:53:24.345Z,4
2022-10-22T05:54:24.351Z,4
2022-10-22T05:55:24.356Z,4
2022-10-22T05:56:24.351Z,4
2022-10-22T05:57:24.348Z,4
2022-10-22T05:58:24.350Z,4
2022-10-22T05:59:24.349Z,4
2022-10-22T06:00:24.352Z,4
2022-10-22T06:01:24.358Z,4
2022-10-22T06:02:24.415Z,4
2022-10-22T06:03:24.355Z,4
2022-10-22T06:04:24.353Z,4
2022-10-22T06:05:24.364Z,4
2022-10-22T06:06:24.355Z,4
2022-10-22T06:07:24.355Z,4
2022-10-22T06:08:24.413Z,4
2022-10-22T06:09:24.424Z,4
2022-10-22T06:10:24.357Z,4
2022-10-22T06:11:24.357Z,4
2022-10-22T06:12:24.358Z,4
2022-10-22T06:13:24.353Z,4
2022-10-22T06:14:24.354Z,4
2022-10-22T06:15:24.361Z,4
2022-10-22T06:16:24.360Z,4
2022-10-22T06:17:24.351Z,4
2022-10-22T06:18:24.376Z,4
2022-10-22T06:19:24.354Z,4
2022-10-22T06:20:24.357Z,4
2022-10-22T06:21:24.364Z,4
2022-10-22T06:22:24.358Z,4
2022-10-22T06:23:24.364Z,4
2022-10-22T06:24:24.361Z,4
2022-10-22T06:26:24.385Z,4
2022-10-22T06:27:24.435Z,4
2022-10-22T06:29:24.356Z,4
2022-10-22T06:30:24.360Z,4
2022-10-22T06:31:24.360Z,4
2022-10-22T06:32:24.359Z,4
2022-10-22T06:33:24.362Z,4
2022-10-22T06:34:24.359Z,4
2022-10-22T06:35:24.368Z,4
2022-10-22T06:36:24.365Z,4
2022-10-22T06:37:24.359Z,4
2022-10-22T06:38:24.364Z,3
2022-10-22T06:39:24.372Z,3
2022-10-22T06:40:24.390Z,4
2022-10-22T06:41:27.172Z,3
2022-10-22T06:42:24.359Z,3
2022-10-22T06:43:24.361Z,3
2022-10-22T06:44:24.362Z,4
2022-10-22T06:45:24.365Z,4
2022-10-22T06:46:24.370Z,3
2022-10-22T06:47:24.363Z,3
2022-10-22T06:48:24.363Z,4
2022-10-22T06:49:24.369Z,4
2022-10-22T06:50:24.362Z,3
2022-10-22T06:51:24.360Z,3
2022-10-22T06:52:24.372Z,4
2022-10-22T06:53:24.367Z,4
2022-10-22T06:54:24.365Z,4
2022-10-22T06:55:24.364Z,4
2022-10-22T06:56:24.376Z,3
2022-10-22T06:57:24.364Z,3
2022-10-22T06:58:24.369Z,3
2022-10-22T06:59:24.371Z,3
2022-10-22T07:00:24.402Z,3
2022-10-22T07:01:24.440Z,4
2022-10-22T07:02:24.372Z,3
2022-10-22T07:03:24.373Z,3
2022-10-22T07:04:24.539Z,4
2022-10-22T07:05:24.374Z,4
2022-10-22T07:06:24.371Z,3
2022-10-22T07:07:24.372Z,3
2022-10-22T07:08:24.375Z,3
2022-10-22T07:09:24.374Z,3
2022-10-22T07:10:27.200Z,3
2022-10-22T07:11:24.408Z,3
2022-10-22T07:12:24.376Z,4
2022-10-22T07:13:24.370Z,3
2022-10-22T07:14:24.369Z,3
2022-10-22T07:15:24.371Z,3
2022-10-22T07:16:28.157Z,3
2022-10-22T07:17:24.377Z,3
2022-10-22T07:18:24.388Z,3
2022-10-22T07:19:24.382Z,3
2022-10-22T07:20:24.543Z,2
2022-10-22T07:21:24.377Z,3
2022-10-22T07:22:24.377Z,3
2022-10-22T07:23:24.374Z,3
2022-10-22T07:24:24.372Z,3
2022-10-22T07:25:24.372Z,3
2022-10-22T07:26:24.378Z,3
2022-10-22T07:27:24.384Z,2
2022-10-22T07:28:24.376Z,3
2022-10-22T07:29:24.370Z,3
2022-10-22T07:30:24.375Z,2
2022-10-22T07:31:24.379Z,3
2022-10-22T07:32:24.376Z,3
2022-10-22T07:33:24.377Z,3
2022-10-22T07:34:24.380Z,3
2022-10-22T07:35:24.374Z,3
2022-10-22T07:36:24.385Z,2
2022-10-22T07:37:24.379Z,2
2022-10-22T07:38:24.381Z,2
2022-10-22T07:39:24.376Z,3
2022-10-22T07:40:24.380Z,3
2022-10-22T07:41:24.381Z,3
2022-10-22T07:42:24.459Z,2
2022-10-22T07:43:24.387Z,3
2022-10-22T07:44:24.383Z,3
2022-10-22T07:45:24.389Z,2
2022-10-22T07:46:24.385Z,2
2022-10-22T07:47:24.381Z,3
2022-10-22T07:48:24.381Z,2
2022-10-22T07:49:24.379Z,2
2022-10-22T07:50:24.388Z,3
2022-10-22T07:51:24.386Z,2
2022-10-22T07:52:24.377Z,3
2022-10-22T07:53:24.387Z,3
2022-10-22T07:54:24.393Z,2
2022-10-22T07:55:24.379Z,2
2022-10-22T07:56:24.401Z,2
2022-10-22T07:57:24.380Z,2
2022-10-22T07:58:24.382Z,2
2022-10-22T07:59:24.385Z,2
2022-10-22T08:00:25.311Z,3
2022-10-22T08:01:24.448Z,3
2022-10-22T08:02:24.395Z,2
2022-10-22T08:03:24.384Z,2
2022-10-22T08:04:24.398Z,2
2022-10-22T08:05:24.392Z,3
2022-10-22T08:06:24.390Z,3
2022-10-22T08:07:24.388Z,2
2022-10-22T08:08:27.134Z,3
2022-10-22T08:09:24.393Z,2
2022-10-22T08:10:24.393Z,2
2022-10-22T08:11:24.395Z,2
2022-10-22T08:12:24.397Z,2
2022-10-22T08:13:24.409Z,2
2022-10-22T08:14:24.387Z,2
2022-10-22T08:16:24.407Z,2
2022-10-22T08:17:24.392Z,2
2022-10-22T08:18:24.385Z,3
2022-10-22T08:20:24.397Z,2
2022-10-22T08:21:24.397Z,2
2022-10-22T08:22:24.397Z,2
2022-10-22T08:23:27.605Z,2
2022-10-22T08:24:24.393Z,2
2022-10-22T08:25:24.395Z,2
2022-10-22T08:26:24.385Z,2
2022-10-22T08:27:24.398Z,2
2022-10-22T08:28:24.396Z,2
2022-10-22T08:29:24.388Z,2
2022-10-22T08:30:24.393Z,2
2022-10-22T08:31:24.392Z,2
2022-10-22T08:32:24.453Z,2
2022-10-22T08:33:24.408Z,2
2022-10-22T08:34:24.396Z,2
2022-10-22T08:35:24.404Z,2
2022-10-22T08:36:24.392Z,2
2022-10-22T08:37:24.392Z,2
2022-10-22T08:38:24.397Z,2
2022-10-22T08:39:24.393Z,2
2022-10-22T08:40:24.401Z,2
2022-10-22T08:41:24.395Z,2
2022-10-22T08:42:24.397Z,2
2022-10-22T08:43:24.392Z,2
2022-10-22T08:44:24.416Z,2
2022-10-22T08:45:24.397Z,2
2022-10-22T08:46:24.402Z,3
2022-10-22T08:47:24.397Z,2
2022-10-22T08:48:24.391Z,2
2022-10-22T08:49:24.397Z,2
2022-10-22T08:50:24.399Z,2
2022-10-22T08:51:24.401Z,2
2022-10-22T08:52:24.403Z,2
2022-10-22T08:53:24.400Z,2
2022-10-22T08:54:24.403Z,2
2022-10-22T08:55:24.402Z,2
2022-10-22T08:56:24.406Z,2
2022-10-22T08:57:24.463Z,2
2022-10-22T08:58:24.632Z,2
2022-10-22T08:59:24.402Z,2
2022-10-22T09:00:24.400Z,2
2022-10-22T09:01:24.403Z,2
2022-10-22T09:02:24.402Z,2
2022-10-22T09:03:24.409Z,2
2022-10-22T09:04:24.409Z,2
2022-10-22T09:05:24.404Z,2
2022-10-22T09:06:24.409Z,2
2022-10-22T09:08:24.405Z,2
2022-10-22T09:09:24.438Z,2
2022-10-22T09:10:24.408Z,2
2022-10-22T09:11:24.437Z,2
2022-10-22T09:12:24.405Z,2
2022-10-22T09:13:24.409Z,2
2022-10-22T09:14:24.404Z,2
2022-10-22T09:15:24.440Z,2
2022-10-22T09:16:24.442Z,2
2022-10-22T09:17:24.722Z,2
2022-10-22T09:18:24.412Z,2
2022-10-22T09:20:24.417Z,2
2022-10-22T09:21:24.412Z,2
2022-10-22T09:22:24.480Z,2
2022-10-22T09:24:24.412Z,2
2022-10-22T09:25:24.409Z,2
2022-10-22T09:26:24.413Z,2
2022-10-22T09:27:24.419Z,2
2022-10-22T09:28:24.415Z,2
2022-10-22T09:29:24.414Z,2
2022-10-22T09:30:24.422Z,2
2022-10-22T09:31:24.413Z,2
2022-10-22T09:32:24.410Z,2
2022-10-22T09:33:24.894Z,2
2022-10-22T09:34:24.407Z,2
2022-10-22T09:35:24.423Z,2
2022-10-22T09:36:24.417Z,2
2022-10-22T09:37:24.413Z,2
2022-10-22T09:38:24.416Z,2
2022-10-22T09:39:24.417Z,2
2022-10-22T09:40:24.414Z,2
2022-10-22T09:41:24.417Z,2
2022-10-22T09:42:24.413Z,2
2022-10-22T09:43:24.411Z,2
2022-10-22T09:44:24.416Z,2
2022-10-22T09:45:24.421Z,2
2022-10-22T09:46:24.438Z,2
2022-10-22T09:47:32.718Z,2
2022-10-22T09:48:24.414Z,1
2022-10-22T09:49:24.416Z,2
2022-10-22T09:50:24.417Z,2
2022-10-22T09:51:24.412Z,1
2022-10-22T09:52:24.419Z,2
2022-10-22T09:53:24.430Z,2
2022-10-22T09:54:24.415Z,1
2022-10-22T09:55:24.420Z,1
2022-10-22T09:56:24.423Z,2
2022-10-22T09:57:24.415Z,2
2022-10-22T09:58:24.426Z,1
2022-10-22T09:59:24.421Z,2
2022-10-22T10:00:24.433Z,2
2022-10-22T10:01:24.419Z,2
2022-10-22T10:02:38.298Z,2
2022-10-22T10:03:24.516Z,2
2022-10-22T10:06:24.424Z,2
2022-10-22T10:07:24.426Z,1
2022-10-22T10:08:24.432Z,2
2022-10-22T10:09:24.425Z,2
2022-10-22T10:10:24.426Z,2
2022-10-22T10:11:28.157Z,1
2022-10-22T10:12:24.429Z,2
2022-10-22T10:13:24.428Z,2
2022-10-22T10:14:24.421Z,2
2022-10-22T10:15:24.425Z,2
2022-10-22T10:16:24.427Z,2
2022-10-22T10:17:24.454Z,2
2022-10-22T10:18:24.429Z,2
2022-10-22T10:19:24.430Z,1
2022-10-22T10:20:24.432Z,2
2022-10-22T10:21:24.425Z,1
2022-10-22T10:22:24.429Z,2
2022-10-22T10:23:25.334Z,1
2022-10-22T10:24:24.423Z,1
2022-10-22T10:25:24.429Z,1
2022-10-22T10:26:24.431Z,1
2022-10-22T10:27:24.423Z,1
2022-10-22T10:28:24.429Z,2
2022-10-22T10:29:24.496Z,1
2022-10-22T10:30:24.436Z,1
2022-10-22T10:31:24.430Z,1
2022-10-22T10:32:24.588Z,2
2022-10-22T10:33:24.438Z,2
2022-10-22T10:34:24.424Z,1
2022-10-22T10:35:24.433Z,1
2022-10-22T10:36:24.429Z,2
2022-10-22T10:37:24.434Z,2
2022-10-22T10:38:27.322Z,2
2022-10-22T10:39:24.438Z,2
2022-10-22T10:40:24.432Z,2
2022-10-22T10:41:24.432Z,1
2022-10-22T10:42:24.432Z,2
2022-10-22T10:43:24.444Z,2
2022-10-22T10:44:24.465Z,1
2022-10-22T10:45:24.429Z,2
2022-10-22T10:46:24.438Z,1
2022-10-22T10:47:24.445Z,2
2022-10-22T10:48:24.471Z,2
2022-10-22T10:49:24.433Z,2
2022-10-22T10:50:24.444Z,1
2022-10-22T10:51:24.444Z,1
2022-10-22T10:52:24.436Z,1
2022-10-22T10:53:24.439Z,1
2022-10-22T10:54:24.433Z,1
2022-10-22T10:55:24.436Z,1
2022-10-22T10:56:24.432Z,2
2022-10-22T10:57:24.439Z,1
2022-10-22T10:58:24.440Z,1
2022-10-22T10:59:24.439Z,1
2022-10-22T11:00:24.449Z,2
2022-10-22T11:01:24.492Z,1
2022-10-22T11:02:24.444Z,1
2022-10-22T11:03:24.439Z,2
2022-10-22T11:04:24.446Z,1
2022-10-22T11:05:24.438Z,1
2022-10-22T11:06:25.667Z,1
2022-10-22T11:07:34.228Z,2
2022-10-22T11:08:24.438Z,2
2022-10-22T11:09:24.462Z,1
2022-10-22T11:10:24.440Z,2
2022-10-22T11:11:24.440Z,1
2022-10-22T11:12:24.452Z,2
2022-10-22T11:13:24.443Z,1
2022-10-22T11:14:26.524Z,1
2022-10-22T11:15:24.454Z,1
2022-10-22T11:16:24.442Z,1
2022-10-22T11:17:24.437Z,2
2022-10-22T11:18:24.441Z,1
2022-10-22T11:19:46.184Z,1
2022-10-22T11:20:24.452Z,1
2022-10-22T11:21:24.450Z,2
2022-10-22T11:22:26.805Z,1
2022-10-22T11:23:24.934Z,1
2022-10-22T11:24:24.446Z,1
2022-10-22T11:25:24.442Z,2
2022-10-22T11:26:24.450Z,1
2022-10-22T11:27:24.446Z,2
2022-10-22T11:28:24.443Z,2
2022-10-22T11:29:25.634Z,1
2022-10-22T11:30:24.452Z,1
2022-10-22T11:31:24.453Z,2
2022-10-22T11:32:24.445Z,1
2022-10-22T11:33:24.445Z,1
2022-10-22T11:34:39.896Z,1
2022-10-22T11:35:25.973Z,2
2022-10-22T11:36:24.514Z,1
2022-10-22T11:37:24.450Z,2
2022-10-22T11:38:24.461Z,2
2022-10-22T11:39:24.454Z,2
2022-10-22T11:40:24.453Z,2
2022-10-22T11:41:24.453Z,2
2022-10-22T11:42:24.450Z,1
2022-10-22T11:43:24.452Z,1
2022-10-22T11:44:24.455Z,1
2022-10-22T11:45:24.453Z,1
2022-10-22T11:46:24.652Z,1
2022-10-22T11:47:24.454Z,1
2022-10-22T11:48:24.468Z,1
2022-10-22T11:49:24.451Z,1
2022-10-22T11:50:24.482Z,1
2022-10-22T11:51:24.450Z,1
2022-10-22T11:53:24.456Z,1
2022-10-22T11:54:24.457Z,1
2022-10-22T11:55:24.469Z,1
2022-10-22T11:56:24.464Z,1
2022-10-22T11:57:24.462Z,1
2022-10-22T11:58:24.568Z,1
2022-10-22T11:59:24.462Z,1
2022-10-22T12:00:24.458Z,1
2022-10-22T12:01:24.564Z,1
2022-10-22T12:02:24.460Z,1
2022-10-22T12:03:24.458Z,1
2022-10-22T12:04:24.500Z,1
2022-10-22T12:05:24.468Z,1
2022-10-22T12:06:24.468Z,1
2022-10-22T12:07:24.463Z,1
2022-10-22T12:08:24.474Z,1
2022-10-22T12:09:24.485Z,1
2022-10-22T12:10:24.483Z,1
2022-10-22T12:11:24.458Z,1
2022-10-22T12:12:24.459Z,1
2022-10-22T12:13:24.471Z,2
2022-10-22T12:14:24.455Z,1
2022-10-22T12:16:32.326Z,2
2022-10-22T12:17:24.466Z,1
2022-10-22T12:18:24.470Z,1
2022-10-22T12:19:24.455Z,2
2022-10-22T12:20:24.473Z,2
2022-10-22T12:21:24.489Z,1
2022-10-22T12:22:24.461Z,2
2022-10-22T12:23:24.465Z,1
2022-10-22T12:24:24.483Z,2
2022-10-22T12:26:24.553Z,2
2022-10-22T12:27:24.460Z,1
2022-10-22T12:28:24.467Z,2
2022-10-22T12:29:24.477Z,2
2022-10-22T12:30:24.465Z,2
2022-10-22T12:31:24.471Z,2
2022-10-22T12:32:24.467Z,2
2022-10-22T12:33:24.475Z,2
2022-10-22T12:34:24.478Z,3
2022-10-22T12:35:24.468Z,2
2022-10-22T12:36:24.478Z,2
2022-10-22T12:37:24.465Z,2
2022-10-22T12:38:24.465Z,2
2022-10-22T12:39:24.466Z,1
2022-10-22T12:40:24.470Z,1
2022-10-22T12:41:24.472Z,2
2022-10-22T12:42:24.468Z,1
2022-10-22T12:43:24.469Z,1
2022-10-22T12:44:24.467Z,1
2022-10-22T12:45:24.480Z,1
2022-10-22T12:46:24.474Z,1
2022-10-22T12:47:24.476Z,1
2022-10-22T12:48:24.489Z,2
2022-10-22T12:49:24.474Z,2
2022-10-22T12:50:24.477Z,1
2022-10-22T12:51:24.513Z,1
2022-10-22T12:52:24.504Z,1
2022-10-22T12:53:24.489Z,1
2022-10-22T12:55:24.475Z,2
2022-10-22T12:56:24.478Z,1
2022-10-22T12:57:24.478Z,1
2022-10-22T12:58:24.472Z,1
2022-10-22T12:59:24.486Z,1
2022-10-22T13:00:24.505Z,1
2022-10-22T13:01:24.485Z,2
2022-10-22T13:02:24.714Z,1
2022-10-22T13:03:24.482Z,1
2022-10-22T13:04:24.477Z,1
2022-10-22T13:05:24.489Z,1
2022-10-22T13:06:24.477Z,1
2022-10-22T13:07:24.489Z,1
2022-10-22T13:09:27.454Z,1
2022-10-22T13:10:24.474Z,1
2022-10-22T13:11:24.495Z,1
2022-10-22T13:12:24.483Z,1
2022-10-22T13:13:24.483Z,1
2022-10-22T13:14:24.491Z,1
2022-10-22T13:15:24.484Z,1
2022-10-22T13:16:24.679Z,1
2022-10-22T13:17:24.508Z,1
2022-10-22T13:18:24.489Z,1
2022-10-22T13:19:24.478Z,1
2022-10-22T13:20:24.495Z,1
2022-10-22T13:21:24.488Z,1
2022-10-22T13:22:24.490Z,1
2022-10-22T13:23:24.506Z,1
2022-10-22T13:24:24.492Z,1
2022-10-22T13:25:24.489Z,1
2022-10-22T13:26:24.499Z,1
2022-10-22T13:27:24.488Z,1
2022-10-22T13:28:24.491Z,1
2022-10-22T13:29:24.488Z,1
2022-10-22T13:30:24.485Z,2
2022-10-22T13:31:24.485Z,2
2022-10-22T13:32:24.492Z,2
2022-10-22T13:33:24.487Z,2
2022-10-22T13:34:24.493Z,2
2022-10-22T13:35:24.500Z,2
2022-10-22T13:36:24.488Z,2
2022-10-22T13:37:24.488Z,1
2022-10-22T13:38:24.512Z,2
2022-10-22T13:39:24.493Z,2
2022-10-22T13:40:24.493Z,2
2022-10-22T13:41:24.505Z,1
2022-10-22T13:42:24.491Z,2
2022-10-22T13:43:24.492Z,1
2022-10-22T13:44:24.502Z,2
2022-10-22T13:45:24.488Z,1
2022-10-22T13:46:24.491Z,1
2022-10-22T13:47:24.486Z,1
2022-10-22T13:48:24.496Z,1
2022-10-22T13:49:24.496Z,1
2022-10-22T13:50:24.495Z,1
2022-10-22T13:51:24.499Z,1
2022-10-22T13:52:24.490Z,2
2022-10-22T13:53:24.494Z,1
2022-10-22T13:54:24.516Z,1
2022-10-22T13:55:24.497Z,1
2022-10-22T13:56:24.492Z,1
2022-10-22T13:57:24.490Z,1
2022-10-22T13:58:24.506Z,1
2022-10-22T13:59:25.276Z,1
2022-10-22T14:00:24.502Z,1
2022-10-22T14:01:24.495Z,1
2022-10-22T14:02:24.501Z,1
2022-10-22T14:03:24.493Z,1
2022-10-22T14:04:24.494Z,1
2022-10-22T14:05:24.492Z,1
2022-10-22T14:06:24.533Z,1
2022-10-22T14:07:24.500Z,2
2022-10-22T14:08:24.500Z,1
2022-10-22T14:09:24.494Z,1
2022-10-22T14:10:24.503Z,1
2022-10-22T14:11:24.496Z,1
2022-10-22T14:12:24.500Z,1
2022-10-22T14:13:24.500Z,1
2022-10-22T14:14:24.499Z,1
2022-10-22T14:15:24.498Z,1
2022-10-22T14:16:24.506Z,1
2022-10-22T14:17:24.506Z,1
2022-10-22T14:18:24.502Z,1
2022-10-22T14:19:24.496Z,2
2022-10-22T14:20:24.501Z,1
2022-10-22T14:21:24.504Z,1
2022-10-22T14:22:24.503Z,1
2022-10-22T14:23:24.505Z,1
2022-10-22T14:24:24.508Z,1
2022-10-22T14:25:24.533Z,1
2022-10-22T14:26:24.500Z,1
2022-10-22T14:27:24.505Z,1
2022-10-22T14:28:24.512Z,1
2022-10-22T14:29:24.504Z,1
2022-10-22T14:30:24.520Z,1
2022-10-22T14:31:24.501Z,1
2022-10-22T14:32:24.500Z,1
2022-10-22T14:33:29.019Z,1
2022-10-22T14:34:24.502Z,1
2022-10-22T14:35:24.512Z,1
2022-10-22T14:36:24.508Z,1
2022-10-22T14:38:24.501Z,1
2022-10-22T14:39:24.507Z,1
2022-10-22T14:40:24.507Z,1
2022-10-22T14:41:24.501Z,1
2022-10-22T14:42:24.502Z,1
2022-10-22T14:43:24.502Z,1
2022-10-22T14:44:24.505Z,1
2022-10-22T14:45:24.517Z,1
2022-10-22T14:46:24.508Z,1
2022-10-22T14:47:24.521Z,1
2022-10-22T14:48:24.520Z,1
2022-10-22T14:49:24.520Z,2
2022-10-22T14:50:24.512Z,1
2022-10-22T14:51:24.508Z,1
2022-10-22T14:52:24.512Z,1
2022-10-22T14:53:24.511Z,2
2022-10-22T14:54:24.512Z,23
2022-10-22T14:55:24.520Z,5
2022-10-22T14:56:24.590Z,1
2022-10-22T14:57:24.513Z,9
2022-10-22T14:58:24.516Z,15
2022-10-22T14:59:24.513Z,6
2022-10-22T15:00:24.558Z,4
2022-10-22T15:01:24.515Z,1
2022-10-22T15:02:24.509Z,2
2022-10-22T15:03:24.513Z,11
2022-10-22T15:04:24.521Z,14
2022-10-22T15:06:24.517Z,4
2022-10-22T15:07:24.521Z,3
2022-10-22T15:08:24.520Z,4
2022-10-22T15:09:24.520Z,6
2022-10-22T15:10:24.517Z,1
2022-10-22T15:11:24.514Z,1
2022-10-22T15:12:24.527Z,1
2022-10-22T15:13:24.539Z,1
2022-10-22T15:14:24.521Z,1